Time;durP1;ratioP1;P1;durP2;ratioP2;P2;SDS_P1;SDS_P2;PMS_P1;PMS_P2;Temp;Humidity;BMP_temperature;BMP_pressure;BME280_temperature;BME280_humidity;BME280_pressure;Samples;Min_cycle;Max_cycle;Signal;HPM_P1;HPM_P2
2023/10/08 00:01:14;;;;;;;23.50;10.18;;;20.80;99.90;;;21.13;89.01;102218.97;5052800;28;20049;-81
2023/10/08 00:03:48;;;;;;;28.50;10.60;;;20.70;99.90;;;21.03;89.28;102224.63;5052461;28;20523;-80
2023/10/08 00:06:20;;;;;;;24.20;9.40;;;20.70;99.90;;;21.10;89.60;102220.88;5052455;28;20051;-81
2023/10/08 00:08:48;;;;;;;;;;;20.70;99.90;;;21.07;89.59;102223.63;5052927;28;20131;-81
2023/10/08 00:11:16;;;;;;;25.67;9.18;;;20.70;99.90;;;21.03;89.93;102225.53;5050585;28;19952;-80
2023/10/08 00:13:48;;;;;;;26.73;9.98;;;20.60;99.90;;;21.09;89.63;102224.47;5052433;28;20045;-80
2023/10/08 00:16:17;;;;;;;24.75;9.40;;;20.70;99.90;;;21.04;89.69;102227.28;5052225;28;20115;-81
2023/10/08 00:18:50;;;;;;;22.37;9.97;;;20.60;99.90;;;21.02;89.80;102223.72;5052143;28;20055;-80
2023/10/08 00:21:26;;;;;;;25.98;9.68;;;20.60;99.90;;;20.96;90.11;102217.63;5051801;28;20036;-77
2023/10/08 00:23:58;;;;;;;26.20;10.10;;;20.60;99.90;;;20.96;89.14;102188.91;5052121;28;20053;-80
2023/10/08 00:26:29;;;;;;;26.83;10.07;;;20.70;99.90;;;21.03;89.27;102201.28;5055071;28;20074;-80
2023/10/08 00:29:06;;;;;;;26.67;10.32;;;20.60;99.90;;;21.04;89.50;102194.97;5049242;28;20454;-80
2023/10/08 00:31:40;;;;;;;24.15;10.45;;;20.60;99.90;;;20.92;89.74;102205.16;5064191;28;20479;-81
2023/10/08 00:34:11;;;;;;;24.40;9.48;;;20.50;99.90;;;21.00;89.50;102187.88;5043433;28;20098;-80
2023/10/08 00:36:42;;;;;;;24.90;10.57;;;20.60;99.90;;;21.01;89.41;102186.09;5052411;28;20120;-80
2023/10/08 00:39:13;;;;;;;23.38;9.82;;;20.60;99.90;;;21.14;89.14;102190.22;5052315;28;20063;-80
2023/10/08 00:41:46;;;;;;;26.65;10.45;;;20.70;99.90;;;21.15;88.93;102174.06;5056370;28;20131;-79
2023/10/08 00:44:16;;;;;;;27.45;10.07;;;20.70;99.90;;;21.30;88.48;102167.38;5055952;28;20053;-80
2023/10/08 00:46:48;;;;;;;26.48;11.20;;;20.80;99.90;;;21.35;88.07;102165.44;5069021;28;20077;-80
2023/10/08 00:49:38;;;;;;;23.00;10.32;;;20.90;99.90;;;21.36;87.84;102168.09;5056208;28;20052;-79
2023/10/08 00:52:26;;;;;;;30.40;9.93;;;20.90;99.90;;;21.38;87.78;102168.03;5055863;28;20045;-82
2023/10/08 00:55:07;;;;;;;22.98;9.70;;;21.00;99.90;;;21.23;88.98;102172.06;5056187;28;20756;-80
2023/10/08 00:57:41;;;;;;;26.40;10.60;;;20.80;99.90;;;21.22;88.93;102175.66;5054400;28;20048;-80
2023/10/08 01:00:21;;;;;;;25.83;10.35;;;20.80;99.90;;;21.24;89.24;102175.59;5055995;28;20048;-80
2023/10/08 01:03:00;;;;;;;24.40;9.98;;;20.80;99.90;;;21.34;89.12;102198.66;5054799;28;20045;-80
2023/10/08 01:05:46;;;;;;;24.33;10.13;;;20.90;99.90;;;21.42;88.44;102202.03;5055948;28;20052;-80
2023/10/08 01:08:22;;;;;;;22.70;10.05;;;21.00;99.90;;;21.30;88.74;102202.38;5055826;28;20048;-80
2023/10/08 01:11:00;;;;;;;29.55;10.73;;;21.00;99.90;;;21.09;89.84;102213.72;5055316;28;20143;-80
2023/10/08 01:13:42;;;;;;;26.42;10.00;;;20.70;99.90;;;20.95;90.98;102205.06;5055472;28;20597;-80
2023/10/08 01:16:11;;;;;;;30.42;10.90;;;20.50;99.90;;;20.72;92.48;102192.22;5055715;28;20049;-80
2023/10/08 01:18:43;;;;;;;33.42;10.88;;;20.40;99.90;;;20.74;92.94;102200.22;5039445;28;20471;-82
2023/10/08 01:21:29;;;;;;;25.17;10.35;;;20.30;99.90;;;20.77;93.01;102197.47;5055008;28;20494;-80
2023/10/08 01:24:01;;;;;;;27.00;10.15;;;20.30;99.90;;;20.58;93.66;102194.34;5055195;28;20478;-80
2023/10/08 01:26:32;;;;;;;27.52;10.95;;;20.20;99.90;;;20.68;94.04;102191.41;5055125;28;20047;-80
2023/10/08 01:29:06;;;;;;;24.02;10.63;;;20.20;99.90;;;20.69;94.09;102187.78;5054870;28;20044;-80
2023/10/08 01:31:36;;;;;;;32.13;12.15;;;20.20;99.90;;;20.72;93.64;102169.81;5053564;28;20048;-80
2023/10/08 01:34:07;;;;;;;32.47;11.40;;;20.30;99.90;;;20.75;93.65;102185.88;5053371;28;20605;-80
2023/10/08 01:36:36;;;;;;;28.90;11.38;;;20.30;99.90;;;20.71;93.64;102184.19;5054894;28;20065;-79
2023/10/08 01:39:06;;;;;;;28.77;11.63;;;20.20;99.90;;;20.65;93.77;102185.22;5055254;28;20060;-79
2023/10/08 01:41:40;;;;;;;25.08;10.90;;;20.30;99.90;;;20.63;94.09;102197.81;5054984;28;20045;-80
2023/10/08 01:44:08;;;;;;;24.52;10.95;;;20.30;99.90;;;20.69;94.44;102198.53;5053786;28;20052;-80
2023/10/08 01:46:40;;;;;;;29.90;11.73;;;20.30;99.90;;;20.53;95.04;102204.34;5054557;28;20064;-80
2023/10/08 01:49:14;;;;;;;30.75;11.63;;;20.20;99.90;;;20.61;95.16;102213.13;5054981;28;20045;-80
2023/10/08 01:51:46;;;;;;;25.88;11.63;;;20.20;99.90;;;20.44;96.17;102224.25;5054678;28;20056;-80
2023/10/08 01:54:17;;;;;;;30.50;11.52;;;20.10;99.90;;;20.43;96.93;102222.50;5054931;28;20120;-81
2023/10/08 01:56:48;;;;;;;32.58;11.80;;;20.00;99.90;;;20.37;97.59;102232.50;5050333;28;20434;-79
2023/10/08 01:59:16;;;;;;;28.27;11.48;;;20.00;99.90;;;20.44;97.38;102232.31;5047353;28;20053;-81
2023/10/08 02:01:46;;;;;;;23.27;11.43;;;20.00;99.90;;;20.62;96.97;102223.81;5051870;28;20061;-78
2023/10/08 02:04:16;;;;;;;36.50;12.38;;;20.10;99.90;;;20.82;95.79;102230.50;5054736;28;20053;-80
2023/10/08 02:06:46;;;;;;;30.52;11.50;;;20.40;99.90;;;20.76;95.78;102242.31;5054389;28;20075;-80
2023/10/08 02:09:16;;;;;;;26.85;11.38;;;20.40;99.90;;;20.85;95.47;102235.84;5054667;28;20445;-80
2023/10/08 02:11:49;;;;;;;26.33;11.17;;;20.40;99.90;;;20.92;95.80;102240.13;5054595;28;20102;-77
2023/10/08 02:14:20;;;;;;;24.27;11.30;;;20.40;99.90;;;20.92;94.86;102230.25;5054582;28;20055;-80
2023/10/08 02:16:48;;;;;;;25.85;11.02;;;20.50;99.90;;;20.95;94.41;102227.47;5053402;28;20489;-80
2023/10/08 02:19:26;;;;;;;27.75;12.07;;;20.60;99.90;;;20.91;94.86;102225.78;5054352;28;20041;-78
2023/10/08 02:21:55;;;;;;;26.35;11.30;;;20.50;99.90;;;20.81;95.27;102220.69;5053341;28;20103;-80
2023/10/08 02:24:26;;;;;;;27.45;10.50;;;20.40;99.90;;;20.66;95.54;102203.13;5049743;28;20487;-79
2023/10/08 02:26:56;;;;;;;;;;;20.40;99.90;;;20.78;95.81;102218.97;5049360;28;20045;-80
2023/10/08 02:29:27;;;;;;;29.73;11.68;;;20.40;99.90;;;20.74;95.09;102193.06;5052725;28;19967;-79
2023/10/08 02:31:56;;;;;;;22.05;11.45;;;20.50;99.90;;;20.79;95.47;102215.31;5053664;28;20087;-80
2023/10/08 02:34:25;;;;;;;22.88;11.43;;;20.40;99.90;;;20.84;95.48;102218.81;5052130;28;20133;-79
2023/10/08 02:36:55;;;;;;;30.00;10.68;;;20.30;99.90;;;20.90;95.26;102231.22;5053772;28;20049;-80
2023/10/08 02:39:26;;;;;;;31.73;11.38;;;20.40;99.90;;;20.94;95.20;102228.41;5053533;28;20499;-80
2023/10/08 02:41:56;;;;;;;21.90;10.25;;;20.50;99.90;;;21.00;94.75;102239.00;5052662;28;20053;-80
2023/10/08 02:44:25;;;;;;;23.27;10.93;;;20.50;99.90;;;21.05;94.40;102229.06;5049254;28;20057;-79
2023/10/08 02:46:54;;;;;;;27.05;11.55;;;20.60;99.90;;;21.09;94.26;102246.00;5049149;28;20471;-80
2023/10/08 02:49:23;;;;;;;24.33;11.35;;;20.60;99.90;;;21.05;94.19;102241.63;5053718;28;20079;-80
2023/10/08 02:51:54;;;;;;;21.73;10.70;;;20.50;99.90;;;21.04;94.15;102245.25;5053746;28;20498;-80
2023/10/08 02:54:31;;;;;;;24.70;11.32;;;20.50;99.90;;;21.03;94.32;102235.38;5053590;28;20090;-80
2023/10/08 02:57:03;;;;;;;20.90;10.35;;;20.50;99.90;;;21.04;94.33;102232.66;5053433;28;20049;-80
2023/10/08 02:59:39;;;;;;;23.48;10.18;;;20.50;99.90;;;21.04;94.21;102227.28;5048385;28;20060;-80
2023/10/08 03:02:18;;;;;;;19.75;9.98;;;20.50;99.90;;;21.03;94.46;102230.00;5043812;28;20044;-79
2023/10/08 03:04:47;;;;;;;26.27;10.63;;;20.50;99.90;;;21.03;94.59;102230.00;5052179;28;20053;-80
2023/10/08 03:07:22;;;;;;;21.63;10.25;;;20.50;99.90;;;21.12;94.22;102224.38;5053105;28;20494;-79
2023/10/08 03:10:03;;;;;;;21.85;10.25;;;20.60;99.90;;;21.16;93.70;102218.88;5051839;28;20063;-79
2023/10/08 03:12:32;;;;;;;24.58;10.75;;;20.70;99.90;;;21.23;93.25;102231.28;5053530;28;20132;-79
2023/10/08 03:15:12;;;;;;;19.65;10.43;;;20.80;99.90;;;21.20;93.45;102234.03;5048689;28;20045;-80
2023/10/08 03:17:48;;;;;;;26.17;11.50;;;20.70;99.90;;;21.22;93.48;102226.81;5059015;28;20080;-80
2023/10/08 03:23:00;;;;;;;20.65;9.85;;;20.70;99.90;;;21.24;93.48;102237.53;5037457;28;20130;-80
2023/10/08 03:25:30;;;;;;;19.73;9.52;;;20.70;99.90;;;21.27;93.16;102245.53;5053333;28;20077;-80
2023/10/08 03:27:59;;;;;;;27.13;11.07;;;20.80;99.90;;;21.18;93.50;102248.44;5053078;28;20505;-80
2023/10/08 03:30:27;;;;;;;22.27;9.68;;;20.70;99.90;;;21.24;93.61;102248.28;5050319;28;20077;-80
2023/10/08 03:32:56;;;;;;;26.05;11.55;;;20.70;99.90;;;21.17;93.38;102257.47;5051807;28;20135;-80
2023/10/08 03:35:33;;;;;;;18.67;10.23;;;20.70;99.90;;;21.21;93.28;102257.34;5068458;28;20140;-79
2023/10/08 03:38:21;;;;;;;25.92;11.13;;;20.70;99.90;;;21.27;93.11;102267.06;5052796;28;20051;-80
2023/10/08 03:40:56;;;;;;;22.83;10.45;;;20.70;99.90;;;21.26;93.19;102265.28;5038974;28;20055;-80
2023/10/08 03:43:33;;;;;;;20.45;10.05;;;20.80;99.90;;;21.19;93.36;102274.44;5052868;28;20055;-80
2023/10/08 03:46:05;;;;;;;25.25;10.02;;;20.70;99.90;;;21.10;93.39;102251.34;5052677;28;20490;-79
2023/10/08 03:48:36;;;;;;;22.75;10.05;;;20.70;99.90;;;21.15;93.44;102275.44;5052683;28;20444;-80
2023/10/08 03:51:11;;;;;;;23.23;10.50;;;20.60;99.90;;;21.08;93.89;102277.41;5052889;28;20045;-80
2023/10/08 03:53:57;;;;;;;22.73;11.73;;;20.60;99.90;;;20.99;93.84;102269.53;5052352;28;20492;-79
2023/10/08 03:56:30;;;;;;;21.08;10.13;;;20.50;99.90;;;21.05;93.77;102274.81;5036702;28;20132;-81
2023/10/08 03:59:00;;;;;;;22.17;10.57;;;20.50;99.90;;;21.05;93.77;102271.22;5052404;28;20048;-80
2023/10/08 04:01:32;;;;;;;19.52;10.18;;;20.50;99.90;;;21.06;93.84;102271.16;5052085;28;20561;-79
2023/10/08 04:04:01;;;;;;;22.48;10.55;;;20.50;99.90;;;21.04;93.89;102273.00;5052343;28;20052;-80
2023/10/08 04:06:37;;;;;;;17.10;9.68;;;20.50;99.90;;;21.07;93.71;102272.97;5052872;28;20052;-78
2023/10/08 04:09:16;;;;;;;21.25;10.23;;;20.50;99.90;;;21.09;93.80;102289.06;5052702;28;20049;-80
2023/10/08 04:14:31;;;;;;;22.80;10.55;;;20.60;99.90;;;21.10;93.62;102309.69;5053245;28;20041;-79
2023/10/08 04:17:00;;;;;;;21.70;10.95;;;20.60;99.90;;;21.08;93.61;102308.84;5055207;28;20051;-80
2023/10/08 04:19:28;;;;;;;22.52;11.00;;;20.50;99.90;;;21.08;93.89;102311.53;5056662;28;20041;-80
2023/10/08 04:21:57;;;;;;;23.20;11.00;;;20.50;99.90;;;21.08;93.83;102314.22;5056343;28;20120;-79
2023/10/08 04:24:34;;;;;;;21.50;11.20;;;20.50;99.90;;;21.04;93.87;102312.53;5056602;28;20041;-80
2023/10/08 04:27:05;;;;;;;23.17;10.70;;;20.50;99.90;;;21.04;93.83;102321.47;5056344;28;20057;-79
2023/10/08 04:29:36;;;;;;;20.23;10.27;;;20.50;99.90;;;21.10;93.63;102312.38;5056787;28;20139;-80
2023/10/08 04:32:11;;;;;;;22.73;10.70;;;20.50;99.90;;;21.14;93.47;102320.31;5056335;28;20048;-80
2023/10/08 04:34:46;;;;;;;21.48;10.43;;;20.60;99.90;;;21.15;93.66;102308.66;5054834;28;20059;-81
2023/10/08 04:37:19;;;;;;;26.95;11.50;;;20.60;99.90;;;21.15;93.63;102295.19;5056087;28;20049;-80
2023/10/08 04:39:54;;;;;;;24.25;10.60;;;20.70;99.90;;;21.18;93.57;102295.09;5040816;28;20044;-78
2023/10/08 04:42:26;;;;;;;26.17;10.80;;;20.70;99.90;;;21.20;93.46;102304.00;5051785;28;20049;-78
2023/10/08 04:44:55;;;;;;;26.05;11.23;;;20.70;99.90;;;21.21;93.59;102318.38;5050908;28;20041;-80
2023/10/08 04:47:34;;;;;;;28.20;11.05;;;20.70;99.90;;;21.19;93.64;102318.41;5055847;28;20441;-79
2023/10/08 04:50:06;;;;;;;21.88;10.43;;;20.70;99.90;;;21.18;93.86;102334.56;5055972;28;20045;-80
2023/10/08 04:52:45;;;;;;;23.08;10.70;;;20.60;99.90;;;21.16;94.01;102336.41;5055995;28;20044;-80
2023/10/08 04:55:20;;;;;;;24.95;10.32;;;20.60;99.90;;;21.13;93.89;102341.88;5055807;28;20128;-79
2023/10/08 04:57:50;;;;;;;25.58;10.43;;;20.60;99.90;;;21.13;93.99;102336.50;5055536;28;20466;-81
2023/10/08 05:00:40;;;;;;;23.45;10.68;;;20.60;99.90;;;21.14;93.80;102324.81;5055494;28;20069;-81
2023/10/08 05:03:13;;;;;;;25.63;10.07;;;20.60;99.90;;;21.15;93.59;102315.81;5055703;28;20559;-80
2023/10/08 05:06:06;;;;;;;29.23;11.00;;;20.60;99.90;;;21.09;93.77;102305.22;5055395;28;20049;-80
2023/10/08 05:08:47;;;;;;;26.80;10.90;;;20.60;99.90;;;21.06;94.38;102313.38;5055845;28;20072;-80
2023/10/08 05:14:16;;;;;;;26.00;11.40;;;20.60;99.90;;;20.80;95.22;102305.00;5048752;28;20014;-81
2023/10/08 05:16:44;;;;;;;26.73;11.23;;;20.30;99.90;;;20.83;95.19;102294.19;5055835;28;20045;-80
2023/10/08 05:19:37;;;;;;;30.52;11.95;;;20.40;99.90;;;20.83;95.29;102295.03;5055056;28;20041;-79
2023/10/08 05:22:17;;;;;;;24.10;10.63;;;20.30;99.90;;;20.82;95.03;102305.84;5055269;28;20777;-80
2023/10/08 05:25:07;;;;;;;30.23;11.88;;;20.30;99.90;;;20.75;94.96;102302.41;5055298;28;20048;-77
2023/10/08 05:30:28;;;;;;;22.95;10.90;;;20.30;99.90;;;20.65;94.76;102300.88;5055038;28;20051;-79
2023/10/08 05:33:08;;;;;;;24.42;10.68;;;20.10;99.90;;;20.69;94.61;102306.13;5039432;28;20041;-78
2023/10/08 05:35:49;;;;;;;25.10;11.23;;;20.20;99.90;;;20.71;94.25;102307.91;5067391;28;20498;-79
2023/10/08 05:38:22;;;;;;;21.40;11.10;;;20.20;99.90;;;20.63;94.42;102311.63;5066232;28;20053;-80
2023/10/08 05:41:12;;;;;;;23.65;10.63;;;20.10;99.90;;;20.52;94.22;102310.09;5039374;28;20399;-80
2023/10/08 05:43:55;;;;;;;19.50;9.65;;;20.00;99.90;;;20.38;93.34;102306.88;5055231;28;20045;-80
2023/10/08 05:46:47;;;;;;;27.13;11.55;;;19.90;99.90;;;20.38;94.31;102305.03;5054890;28;20473;-80
2023/10/08 05:49:38;;;;;;;28.77;11.98;;;19.90;99.90;;;20.44;94.57;102304.03;5053718;28;20399;-80
2023/10/08 05:52:37;;;;;;;21.48;10.98;;;19.90;99.90;;;20.42;95.14;102305.88;5067247;28;20061;-80
2023/10/08 05:55:15;;;;;;;25.20;11.18;;;19.90;99.90;;;20.42;95.48;102313.94;5043219;28;20479;-80
2023/10/08 05:57:52;;;;;;;16.02;11.13;;;19.90;99.90;;;20.40;95.29;102305.03;5054562;28;20049;-79
2023/10/08 06:03:11;;;;;;;19.23;11.00;;;19.90;99.90;;;20.37;95.28;102316.72;5054061;28;20052;-79
2023/10/08 06:05:47;;;;;;;18.85;10.38;;;19.80;99.90;;;20.38;95.08;102318.47;5054253;28;20053;-79
2023/10/08 06:08:21;;;;;;;17.30;10.88;;;19.90;99.90;;;20.30;95.36;102319.56;5054369;28;20055;-80
2023/10/08 06:10:56;;;;;;;11.63;8.00;;;19.80;99.90;;;20.23;95.60;102336.72;5054264;28;20052;-81
2023/10/08 06:13:44;;;;;;;20.15;11.38;;;19.70;99.90;;;20.17;96.12;102344.91;5053209;28;20122;-81
2023/10/08 06:16:30;;;;;;;17.63;10.75;;;19.70;99.90;;;20.15;96.26;102347.59;5053468;28;20178;-81
2023/10/08 06:19:00;;;;;;;15.80;9.70;;;19.60;99.90;;;20.14;96.21;102355.69;5053765;28;20122;-79
2023/10/08 06:21:29;;;;;;;15.02;9.57;;;19.60;99.90;;;20.22;96.33;102356.47;5049516;28;20045;-80
2023/10/08 06:23:57;;;;;;;24.27;12.60;;;19.70;99.90;;;20.26;96.53;102352.81;5052863;28;20037;-80
2023/10/08 06:26:27;;;;;;;52.25;14.60;;;19.70;99.90;;;19.62;97.57;102350.44;5053620;28;20044;-80
2023/10/08 06:28:58;;;;;;;51.45;14.65;;;19.40;99.90;;;19.58;98.79;102354.09;5054062;28;20049;-80
2023/10/08 06:31:27;;;;;;;;;;;19.20;99.90;;;19.52;98.81;102356.88;5054346;28;20057;-80
2023/10/08 06:33:57;;;;;;;49.95;14.75;;;19.10;99.90;;;19.43;98.68;102357.06;5054014;28;19927;-81
2023/10/08 06:36:28;;;;;;;50.30;14.07;;;19.10;99.90;;;19.11;99.82;102352.16;5053828;28;20091;-80
2023/10/08 06:38:56;;;;;;;;;;;18.90;99.90;;;19.14;100.00;102365.56;5053410;28;20048;-81
2023/10/08 06:41:33;;;;;;;48.28;14.00;;;18.80;99.90;;;19.19;100.00;102358.31;5053800;28;20390;-80
2023/10/08 06:44:18;;;;;;;51.65;14.75;;;18.80;99.90;;;19.19;100.00;102360.97;5040198;28;20053;-79
2023/10/08 06:46:48;;;;;;;47.17;14.80;;;18.80;99.90;;;19.24;100.00;102371.66;5054194;28;20139;-81
2023/10/08 06:49:18;;;;;;;44.07;15.03;;;18.90;99.90;;;19.30;100.00;102383.16;5053585;28;20120;-81
2023/10/08 06:51:48;;;;;;;43.10;14.38;;;18.90;99.90;;;19.41;100.00;102391.09;5053142;28;20749;-81
2023/10/08 06:54:17;;;;;;;50.45;15.07;;;19.00;99.90;;;19.42;100.00;102387.47;5053583;28;20045;-81
2023/10/08 06:56:51;;;;;;;58.83;16.80;;;19.10;99.90;;;19.41;99.76;102391.09;5053392;28;20133;-81
2023/10/08 06:59:23;;;;;;;51.38;15.38;;;19.10;99.90;;;19.21;99.24;102374.38;5053780;28;20068;-81
2023/10/08 07:01:52;;;;;;;52.05;15.27;;;19.00;99.90;;;19.40;98.98;102397.34;5053714;28;20045;-81
2023/10/08 07:04:21;;;;;;;41.35;13.23;;;19.10;99.90;;;19.44;98.84;102404.44;5052256;28;20104;-79
2023/10/08 07:06:53;;;;;;;48.75;13.35;;;19.10;99.90;;;19.15;98.01;102402.19;5053514;28;20049;-81
2023/10/08 07:09:29;;;;;;;33.65;11.90;;;18.90;99.90;;;19.05;98.64;102391.63;5053338;28;20461;-81
2023/10/08 07:12:05;;;;;;;32.05;11.07;;;18.70;99.90;;;19.19;98.09;102390.50;5053653;28;20061;-81
2023/10/08 07:14:34;;;;;;;30.38;10.38;;;18.80;99.90;;;19.23;97.45;102394.00;5053020;28;20045;-82
2023/10/08 07:17:08;;;;;;;33.50;10.65;;;18.90;99.90;;;19.19;97.42;102393.19;5052361;28;20048;-81
2023/10/08 07:19:38;;;;;;;34.42;10.85;;;18.80;99.90;;;19.11;96.99;102397.78;5052708;28;20056;-79
2023/10/08 07:22:22;;;;;;;28.75;10.15;;;18.80;99.90;;;19.22;97.21;102411.03;5048133;28;20477;-82
2023/10/08 07:24:51;;;;;;;31.30;11.52;;;18.90;99.90;;;19.22;96.83;102405.69;5049902;28;20053;-77
2023/10/08 07:27:24;;;;;;;25.48;10.55;;;18.90;99.90;;;19.07;97.24;102416.59;5053110;28;20045;-80
2023/10/08 07:29:55;;;;;;;25.02;10.48;;;18.80;99.90;;;19.23;96.99;102419.06;5052774;28;20508;-79
2023/10/08 07:32:25;;;;;;;25.75;11.48;;;18.80;99.90;;;19.27;96.59;102417.22;5052886;28;20064;-80
2023/10/08 07:35:14;;;;;;;31.45;11.07;;;18.90;99.90;;;19.24;96.57;102423.50;5050338;28;20538;-80
2023/10/08 07:37:44;;;;;;;25.20;11.15;;;18.90;99.90;;;19.30;96.11;102435.97;5052595;28;20045;-79
2023/10/08 07:40:14;;;;;;;29.27;11.43;;;19.00;99.90;;;18.75;96.77;102431.38;5052630;28;20076;-81
2023/10/08 07:42:43;;;;;;;32.00;11.45;;;18.70;99.90;;;18.93;97.85;102436.47;5052510;28;20046;-78
2023/10/08 07:45:17;;;;;;;34.55;12.20;;;18.60;99.90;;;18.82;98.19;102443.78;5052749;28;20041;-80
2023/10/08 07:47:46;;;;;;;39.03;13.40;;;18.50;99.90;;;18.09;100.00;102441.94;5052657;28;20048;-79
2023/10/08 07:50:16;;;;;;;40.42;13.27;;;18.00;99.90;;;18.29;100.00;102448.84;5052519;28;20067;-80
2023/10/08 07:52:45;;;;;;;38.73;13.47;;;17.90;99.90;;;18.21;100.00;102448.06;5052722;28;20045;-78
2023/10/08 07:55:17;;;;;;;40.40;13.57;;;17.90;99.90;;;18.27;100.00;102452.47;5052329;28;20814;-78
2023/10/08 07:57:46;;;;;;;37.10;14.75;;;17.90;99.90;;;18.20;99.84;102458.78;5052661;28;20087;-76
2023/10/08 08:00:22;;;;;;;43.95;15.15;;;17.90;99.90;;;18.26;100.00;102459.63;5052670;28;20505;-80
2023/10/08 08:02:54;;;;;;;44.30;14.73;;;17.90;99.90;;;18.34;99.55;102459.53;5052440;28;20073;-78
2023/10/08 08:05:25;;;;;;;37.65;13.13;;;18.00;99.90;;;18.34;99.49;102457.75;5052876;28;20041;-79
2023/10/08 08:07:56;;;;;;;35.08;13.68;;;18.10;99.90;;;18.42;99.14;102468.38;5052178;28;20407;-80
2023/10/08 08:10:25;;;;;;;40.05;13.10;;;18.10;99.90;;;18.39;98.71;102466.59;5052242;28;20061;-78
2023/10/08 08:12:56;;;;;;;30.52;11.55;;;18.10;99.90;;;18.44;98.66;102458.56;5051937;28;20501;-81
2023/10/08 08:15:27;;;;;;;41.85;12.48;;;18.10;99.90;;;18.52;98.47;102456.69;5052812;28;20052;-77
2023/10/08 08:17:55;;;;;;;;;;;18.20;99.90;;;18.14;97.69;102443.66;5052000;28;20044;-78
2023/10/08 08:20:34;;;;;;;33.00;12.27;;;18.10;99.90;;;18.15;99.10;102472.25;5051758;28;19931;-76
2023/10/08 08:23:07;;;;;;;27.88;11.82;;;17.90;99.90;;;18.07;99.72;102479.47;5051785;28;20474;-79
2023/10/08 08:25:45;;;;;;;34.90;13.05;;;17.70;99.90;;;17.40;100.00;102475.53;5052475;28;20048;-79
2023/10/08 08:28:20;;;;;;;30.58;12.40;;;17.30;99.90;;;17.60;100.00;102473.59;5052123;28;20057;-79
2023/10/08 08:30:52;;;;;;;32.50;11.85;;;17.20;99.90;;;17.34;100.00;102476.47;5052127;28;20111;-79
2023/10/08 08:33:23;;;;;;;28.40;10.20;;;17.00;99.90;;;17.80;100.00;102485.06;5052501;28;20136;-79
2023/10/08 08:36:01;;;;;;;;;;;17.30;99.90;;;17.95;100.00;102487.59;5051733;28;20401;-78
2023/10/08 08:38:32;;;;;;;29.33;10.75;;;17.60;99.90;;;18.12;100.00;102480.28;5051548;28;19924;-78
2023/10/08 08:41:06;;;;;;;24.85;10.15;;;17.70;99.90;;;17.87;100.00;102460.91;5052097;28;20049;-78
2023/10/08 08:43:36;;;;;;;27.67;10.85;;;17.60;99.90;;;18.11;99.84;102493.69;5052008;28;20128;-78
2023/10/08 08:46:06;;;;;;;29.55;10.90;;;17.70;99.90;;;18.26;99.36;102491.75;5036246;28;20053;-78
2023/10/08 08:48:38;;;;;;;22.83;9.52;;;17.90;99.90;;;18.42;98.56;102497.84;5051993;28;20056;-78
2023/10/08 08:51:09;;;;;;;25.17;9.30;;;18.10;99.90;;;18.56;97.85;102498.63;5052169;28;20076;-81
2023/10/08 08:53:39;;;;;;;;;;;18.20;99.90;;;18.73;97.19;102491.28;5052690;28;20056;-77
2023/10/08 08:56:10;;;;;;;27.20;9.88;;;18.40;99.90;;;18.71;96.42;102501.13;5051707;28;19920;-79
2023/10/08 08:58:41;;;;;;;23.73;10.50;;;18.40;99.90;;;18.79;95.60;102494.75;5052109;28;20041;-67
2023/10/08 09:01:14;;;;;;;20.42;9.10;;;18.50;99.90;;;18.83;95.12;102495.63;5053842;28;20045;-73
2023/10/08 09:03:42;;;;;;;21.20;9.75;;;18.50;99.90;;;18.83;94.91;102492.94;5055584;28;20451;-73
2023/10/08 09:06:11;;;;;;;20.08;10.20;;;18.50;99.90;;;18.84;94.45;102492.94;5054494;28;20106;-75
2023/10/08 09:08:45;;;;;;;24.60;10.82;;;18.50;99.90;;;18.33;96.45;102500.63;5055400;28;20049;-72
2023/10/08 09:11:16;;;;;;;26.52;11.57;;;18.10;99.90;;;18.47;96.18;102493.34;5055763;28;20056;-74
2023/10/08 09:13:45;;;;;;;;;;;18.20;99.90;;;17.57;100.00;102477.22;5055627;28;20051;-72
2023/10/08 09:16:15;;;;;;;20.90;10.38;;;17.40;99.90;;;18.07;100.00;102476.78;5055175;28;19927;-74
2023/10/08 09:18:45;;;;;;;;;;;17.60;99.90;;;18.31;99.24;102483.69;5055708;28;20045;-75
2023/10/08 09:21:19;;;;;;;26.38;10.63;;;17.90;99.90;;;17.89;99.50;102476.94;5055462;28;20385;-75
2023/10/08 09:23:54;;;;;;;29.77;11.75;;;17.70;99.90;;;17.24;100.00;102468.47;5055303;28;20051;-80
2023/10/08 09:26:25;;;;;;;29.27;11.35;;;17.10;99.90;;;17.60;100.00;102468.25;5054157;28;20045;-80
2023/10/08 09:28:54;;;;;;;29.73;11.50;;;17.20;99.90;;;17.59;100.00;102466.50;5055172;28;20059;-73
2023/10/08 09:31:24;;;;;;;28.10;12.27;;;17.20;99.90;;;17.66;100.00;102470.88;5055108;28;20409;-74
2023/10/08 09:33:56;;;;;;;32.45;12.73;;;17.40;99.90;;;17.58;100.00;102468.28;5054078;28;20083;-77
2023/10/08 09:36:31;;;;;;;26.10;12.13;;;17.30;99.90;;;17.62;100.00;102480.72;5054835;28;20491;-81
2023/10/08 09:39:05;;;;;;;30.83;13.35;;;17.30;99.90;;;17.68;100.00;102495.84;5054490;28;20049;-75
2023/10/08 09:41:35;;;;;;;37.78;14.70;;;17.40;99.90;;;17.83;100.00;102493.03;5054142;28;20453;-66
2023/10/08 09:44:10;;;;;;;32.40;13.60;;;17.50;99.90;;;18.09;100.00;102499.09;5054345;28;20049;-72
2023/10/08 09:46:44;;;;;;;34.30;15.07;;;17.70;99.90;;;17.47;100.00;102474.56;5053656;28;20056;-83
2023/10/08 09:49:16;;;;;;;34.60;15.05;;;17.30;99.90;;;17.46;100.00;102471.00;5039823;28;20052;-73
2023/10/08 09:51:46;;;;;;;37.33;15.38;;;17.10;99.90;;;17.59;100.00;102487.91;5054397;28;20506;-75
2023/10/08 09:54:24;;;;;;;39.92;15.88;;;17.30;99.90;;;17.57;100.00;102490.59;5055188;28;20053;-72
2023/10/08 09:56:54;;;;;;;41.20;15.27;;;17.30;99.90;;;17.26;100.00;102486.31;5054786;28;20053;-75
2023/10/08 09:59:24;;;;;;;47.88;16.77;;;17.10;99.90;;;17.14;100.00;102473.00;5049705;28;20081;-80
2023/10/08 10:01:54;;;;;;;44.17;15.30;;;16.80;99.90;;;17.10;100.00;102481.94;5046276;28;20072;-83
2023/10/08 10:04:25;;;;;;;42.63;14.82;;;16.80;99.90;;;17.10;100.00;102479.25;5054270;28;20048;-80
2023/10/08 10:06:54;;;;;;;40.63;15.52;;;16.80;99.90;;;17.32;100.00;102467.56;5038507;28;20067;-72
2023/10/08 10:09:26;;;;;;;38.33;15.10;;;16.90;99.90;;;17.53;100.00;102483.50;5054598;28;20041;-74
2023/10/08 10:11:57;;;;;;;41.40;15.25;;;17.20;99.90;;;17.31;100.00;102487.16;5054244;28;20084;-73
2023/10/08 10:14:26;;;;;;;40.20;15.25;;;17.10;99.90;;;17.19;100.00;102486.34;5054571;28;20053;-73
2023/10/08 10:17:14;;;;;;;36.53;14.07;;;16.90;99.90;;;17.44;100.00;102485.31;5053986;28;20068;-71
2023/10/08 10:20:06;;;;;;;35.17;13.35;;;17.10;99.90;;;17.58;100.00;102483.44;5054167;28;20051;-72
2023/10/08 10:22:36;;;;;;;39.95;14.93;;;17.30;99.90;;;17.74;100.00;102480.66;5054069;28;20486;-73
2023/10/08 10:25:14;;;;;;;40.95;14.50;;;17.30;99.90;;;17.60;100.00;102490.56;5053734;28;20044;-72
2023/10/08 10:27:43;;;;;;;34.33;13.25;;;17.30;99.90;;;17.34;100.00;102488.94;5053468;28;20041;-71
2023/10/08 10:30:18;;;;;;;43.42;14.52;;;17.00;99.90;;;17.63;100.00;102490.56;5053425;28;20453;-71
2023/10/08 10:32:53;;;;;;;31.60;13.60;;;17.30;99.90;;;17.85;100.00;102485.91;5053744;28;20060;-73
2023/10/08 10:35:23;;;;;;;;;;;17.50;99.90;;;17.65;100.00;102493.22;5054160;28;20136;-72
2023/10/08 10:37:52;;;;;;;33.00;13.10;;;17.40;99.90;;;17.56;100.00;102487.91;5053671;28;19925;-72
2023/10/08 10:40:29;;;;;;;36.85;13.55;;;17.20;99.90;;;17.71;100.00;102491.34;5053008;28;20076;-73
2023/10/08 10:42:58;;;;;;;40.58;13.50;;;17.40;99.90;;;17.54;100.00;102490.59;5053900;28;20045;-70